createdAt,value
2018-04-13T00:00:50.000Z,1002.35
2018-04-13T00:01:49.970Z,1002.34
2018-04-13T00:02:49.944Z,1002.37
2018-04-13T00:03:49.919Z,1002.35
2018-04-13T00:04:50.341Z,1002.36
2018-04-13T00:05:49.867Z,1002.35
2018-04-13T00:06:49.839Z,1002.33
2018-04-13T00:07:49.813Z,1002.36
2018-04-13T00:08:49.786Z,1002.36
2018-04-13T00:09:49.761Z,1002.27
2018-04-13T00:10:49.734Z,1002.27
2018-04-13T00:11:49.712Z,1002.29
2018-04-13T00:12:49.681Z,1002.33
2018-04-13T00:13:49.663Z,1002.34
2018-04-13T00:14:49.629Z,1002.26
2018-04-13T00:15:49.611Z,1002.31
2018-04-13T00:16:49.576Z,1002.32
2018-04-13T00:17:49.550Z,1002.34
2018-04-13T00:18:49.524Z,1002.30
2018-04-13T00:19:49.499Z,1002.36
2018-04-13T00:20:49.471Z,1002.38
2018-04-13T00:21:49.445Z,1002.37
2018-04-13T00:22:49.421Z,1002.40
2018-04-13T00:23:49.394Z,1002.44
2018-04-13T00:24:49.368Z,1002.43
2018-04-13T00:25:49.341Z,1002.41
2018-04-13T00:26:49.316Z,1002.43
2018-04-13T00:27:49.288Z,1002.44
2018-04-13T00:28:49.264Z,1002.52
2018-04-13T00:29:49.237Z,1002.49
2018-04-13T00:30:49.215Z,1002.45
2018-04-13T00:31:49.186Z,1002.47
2018-04-13T00:32:49.158Z,1002.47
2018-04-13T00:33:49.134Z,1002.48
2018-04-13T00:34:49.105Z,1002.47
2018-04-13T00:35:49.081Z,1002.46
2018-04-13T00:36:49.052Z,1002.47
2018-04-13T00:37:49.026Z,1002.45
2018-04-13T00:38:49.000Z,1002.41
2018-04-13T00:39:48.977Z,1002.39
2018-04-13T00:40:48.949Z,1002.35
2018-04-13T00:41:48.931Z,1002.33
2018-04-13T00:42:48.896Z,1002.33
2018-04-13T00:43:48.871Z,1002.30
2018-04-13T00:44:48.843Z,1002.34
2018-04-13T00:45:48.817Z,1002.38
2018-04-13T00:46:48.799Z,1002.38
2018-04-13T00:47:48.765Z,1002.27
2018-04-13T00:48:48.744Z,1002.40
2018-04-13T00:49:48.713Z,1002.39
2018-04-13T00:50:48.687Z,1002.35
2018-04-13T00:51:48.660Z,1002.36
2018-04-13T00:52:48.639Z,1002.29
2018-04-13T00:53:48.608Z,1002.25
2018-04-13T00:54:48.582Z,1002.32
2018-04-13T00:55:48.557Z,1002.35
2018-04-13T00:56:48.529Z,1002.34
2018-04-13T00:57:48.504Z,1002.35
2018-04-13T00:58:48.478Z,1002.38
2018-04-13T00:59:48.454Z,1002.40
2018-04-13T01:00:48.426Z,1002.38
2018-04-13T01:01:48.400Z,1002.35
2018-04-13T01:02:48.373Z,1002.28
2018-04-13T01:03:48.358Z,1002.45
2018-04-13T01:04:48.330Z,1002.42
2018-04-13T01:05:48.308Z,1002.49
2018-04-13T01:06:48.276Z,1002.50
2018-04-13T01:07:48.244Z,1002.55
2018-04-13T01:08:48.216Z,1002.54
2018-04-13T01:09:48.189Z,1002.57
2018-04-13T01:10:48.164Z,1002.61
2018-04-13T01:11:48.138Z,1002.62
2018-04-13T01:12:48.131Z,1002.67
2018-04-13T01:13:48.085Z,1002.65
2018-04-13T01:14:48.061Z,1002.69
2018-04-13T01:15:48.034Z,1002.75
2018-04-13T01:16:48.007Z,1002.78
2018-04-13T01:17:47.983Z,1002.83
2018-04-13T01:18:47.955Z,1002.86
2018-04-13T01:19:47.929Z,1002.91
2018-04-13T01:20:47.904Z,1002.92
2018-04-13T01:21:47.885Z,1002.98
2018-04-13T01:22:47.851Z,1002.94
2018-04-13T01:23:47.830Z,1002.93
2018-04-13T01:24:47.798Z,1002.94
2018-04-13T01:25:47.772Z,1002.94
2018-04-13T01:26:47.747Z,1002.94
2018-04-13T01:27:47.722Z,1002.94
2018-04-13T01:28:47.694Z,1002.97
2018-04-13T01:29:47.668Z,1002.95
2018-04-13T01:30:47.643Z,1002.90
2018-04-13T01:31:47.617Z,1002.85
2018-04-13T01:32:47.593Z,1002.88
2018-04-13T01:33:47.566Z,1002.83
2018-04-13T01:34:47.538Z,1002.76
2018-04-13T01:35:47.528Z,1002.74
2018-04-13T01:36:47.502Z,1002.74
2018-04-13T01:37:47.460Z,1002.75
2018-04-13T01:38:47.434Z,1002.76
2018-04-13T01:39:47.409Z,1002.76
2018-04-13T01:40:47.381Z,1002.72
2018-04-13T01:41:47.357Z,1002.70
2018-04-13T01:42:47.329Z,1002.63
2018-04-13T01:43:47.304Z,1002.59
2018-04-13T01:44:47.277Z,1002.60
2018-04-13T01:45:47.251Z,1002.57
2018-04-13T01:46:47.228Z,1002.52
2018-04-13T01:47:47.198Z,1002.50
2018-04-13T01:48:47.171Z,1002.50
2018-04-13T01:49:47.145Z,1002.49
2018-04-13T01:50:47.156Z,1002.48
2018-04-13T01:51:47.093Z,1002.46
2018-04-13T01:52:47.070Z,1002.48
2018-04-13T01:53:47.039Z,1002.50
2018-04-13T01:54:47.013Z,1002.47
2018-04-13T01:55:46.987Z,1002.46
2018-04-13T01:56:46.960Z,1002.42
2018-04-13T01:57:46.934Z,1002.38
2018-04-13T01:58:46.907Z,1002.39
2018-04-13T01:59:46.884Z,1002.39
2018-04-13T02:00:46.867Z,1002.36
2018-04-13T02:01:46.827Z,1002.33
2018-04-13T02:02:46.802Z,1002.28
2018-04-13T02:03:46.777Z,1002.22
2018-04-13T02:04:46.748Z,1002.20
2018-04-13T02:05:46.723Z,1002.07
2018-04-13T02:06:46.696Z,1002.02
2018-04-13T02:07:46.671Z,1001.92
2018-04-13T02:08:46.645Z,1001.88
2018-04-13T02:09:46.616Z,1001.82
2018-04-13T02:10:46.590Z,1001.71
2018-04-13T02:11:46.564Z,1001.63
2018-04-13T02:12:46.545Z,1001.58
2018-04-13T02:13:46.513Z,1001.54
2018-04-13T02:14:46.483Z,1001.55
2018-04-13T02:15:46.457Z,1001.57
2018-04-13T02:16:46.430Z,1001.53
2018-04-13T02:17:46.403Z,1001.69
2018-04-13T02:18:46.379Z,1001.71
2018-04-13T02:19:46.350Z,1001.77
2018-04-13T02:20:46.323Z,1001.78
2018-04-13T02:21:46.296Z,1001.74
2018-04-13T02:22:46.282Z,1001.77
2018-04-13T02:23:46.243Z,1001.78
2018-04-13T02:24:46.218Z,1001.74
2018-04-13T02:25:46.189Z,1001.71
2018-04-13T02:26:46.163Z,1001.76
2018-04-13T02:27:46.135Z,1001.68
2018-04-13T02:28:46.111Z,1001.74
2018-04-13T02:29:46.082Z,1001.81
2018-04-13T02:30:46.055Z,1001.77
2018-04-13T02:31:46.029Z,1001.79
2018-04-13T02:32:46.001Z,1001.75
2018-04-13T02:33:45.975Z,1001.81
2018-04-13T02:34:45.948Z,1001.81
2018-04-13T02:35:45.922Z,1001.89
2018-04-13T02:36:45.894Z,1001.85
2018-04-13T02:37:45.867Z,1001.93
2018-04-13T02:38:45.841Z,1001.97
2018-04-13T02:39:45.815Z,1002.01
2018-04-13T02:40:45.795Z,1002.10
2018-04-13T02:41:45.761Z,1002.11
2018-04-13T02:42:45.743Z,1002.11
2018-04-13T02:43:45.708Z,1002.06
2018-04-13T02:44:45.681Z,1001.96
2018-04-13T02:45:45.662Z,1001.93
2018-04-13T02:46:45.627Z,1001.90
2018-04-13T02:47:45.601Z,1001.91
2018-04-13T02:48:45.573Z,1002.05
2018-04-13T02:49:45.698Z,1002.00
2018-04-13T02:50:45.527Z,1002.05
2018-04-13T02:51:45.493Z,1002.00
2018-04-13T02:52:45.470Z,1002.07
2018-04-13T02:53:45.440Z,1002.07
2018-04-13T02:54:45.413Z,1002.08
2018-04-13T02:55:45.387Z,1002.05
2018-04-13T02:56:45.359Z,1002.13
2018-04-13T02:57:45.336Z,1002.18
2018-04-13T02:58:45.309Z,1002.19
2018-04-13T02:59:45.280Z,1002.20
2018-04-13T03:00:45.258Z,1002.15
2018-04-13T03:01:45.225Z,1002.10
2018-04-13T03:02:45.200Z,1002.17
2018-04-13T03:03:45.177Z,1002.17
2018-04-13T03:04:45.147Z,1002.13
2018-04-13T03:05:45.125Z,1002.21
2018-04-13T03:06:45.093Z,1002.21
2018-04-13T03:07:45.071Z,1002.21
2018-04-13T03:08:45.042Z,1002.20
2018-04-13T03:09:45.013Z,1002.17
2018-04-13T03:10:44.993Z,1002.14
2018-04-13T03:11:44.962Z,1002.13
2018-04-13T03:12:44.934Z,1002.14
2018-04-13T03:13:44.919Z,1002.12
2018-04-13T03:14:44.884Z,1002.13
2018-04-13T03:15:44.855Z,1002.10
2018-04-13T03:16:44.828Z,1002.12
2018-04-13T03:17:44.801Z,1002.20
2018-04-13T03:18:44.776Z,1002.25
2018-04-13T03:19:44.749Z,1002.23
2018-04-13T03:20:44.734Z,1002.29
2018-04-13T03:21:44.696Z,1002.25
2018-04-13T03:22:44.670Z,1002.23
2018-04-13T03:23:44.643Z,1002.24
2018-04-13T03:24:44.615Z,1002.24
2018-04-13T03:25:44.592Z,1002.18
2018-04-13T03:26:44.563Z,1002.23
2018-04-13T03:27:44.536Z,1002.25
2018-04-13T03:28:44.509Z,1002.26
2018-04-13T03:29:44.486Z,1002.24
2018-04-13T03:30:44.457Z,1002.28
2018-04-13T03:31:44.431Z,1002.28
2018-04-13T03:32:44.403Z,1002.27
2018-04-13T03:33:44.376Z,1002.26
2018-04-13T03:34:44.350Z,1002.22
2018-04-13T03:35:44.323Z,1002.20
2018-04-13T03:36:44.297Z,1002.22
2018-04-13T03:37:44.269Z,1002.20
2018-04-13T03:38:44.242Z,1002.18
2018-04-13T03:39:44.216Z,1002.17
2018-04-13T03:40:44.189Z,1002.18
2018-04-13T03:41:44.162Z,1002.22
2018-04-13T03:42:44.137Z,1002.22
2018-04-13T03:43:44.111Z,1002.23
2018-04-13T03:44:44.109Z,1002.22
2018-04-13T03:45:44.055Z,1002.16
2018-04-13T03:46:44.034Z,1002.20
2018-04-13T03:47:44.003Z,1002.24
2018-04-13T03:48:43.983Z,1002.27
2018-04-13T03:49:43.952Z,1002.23
2018-04-13T03:50:43.923Z,1002.23
2018-04-13T03:51:43.896Z,1002.29
2018-04-13T03:52:43.869Z,1002.22
2018-04-13T03:53:43.842Z,1002.26
2018-04-13T03:54:43.818Z,1002.16
2018-04-13T03:55:43.789Z,1002.21
2018-04-13T03:56:43.766Z,1002.21
2018-04-13T03:57:43.740Z,1002.19
2018-04-13T03:58:43.710Z,1002.25
2018-04-13T03:59:43.932Z,1002.25
2018-04-13T04:00:43.655Z,1002.25
2018-04-13T04:01:43.629Z,1002.29
2018-04-13T04:02:43.601Z,1002.30
2018-04-13T04:03:43.574Z,1002.28
2018-04-13T04:04:43.547Z,1002.34
2018-04-13T04:05:43.520Z,1002.34
2018-04-13T04:06:43.494Z,1002.33
2018-04-13T04:07:43.470Z,1002.37
2018-04-13T04:08:43.442Z,1002.33
2018-04-13T04:09:43.413Z,1002.34
2018-04-13T04:10:43.389Z,1002.36
2018-04-13T04:11:43.361Z,1002.39
2018-04-13T04:12:43.336Z,1002.42
2018-04-13T04:13:43.308Z,1002.41
2018-04-13T04:14:43.283Z,1002.46
2018-04-13T04:15:43.253Z,1002.46
2018-04-13T04:16:43.228Z,1002.49
2018-04-13T04:17:43.199Z,1002.47
2018-04-13T04:18:43.172Z,1002.53
2018-04-13T04:19:43.152Z,1002.53
2018-04-13T04:20:43.118Z,1002.52
2018-04-13T04:21:43.096Z,1002.56
2018-04-13T04:22:43.066Z,1002.59
2018-04-13T04:23:43.042Z,1002.60
2018-04-13T04:24:43.011Z,1002.58
2018-04-13T04:25:42.988Z,1002.55
2018-04-13T04:26:42.958Z,1002.53
2018-04-13T04:27:42.932Z,1002.57
2018-04-13T04:28:42.903Z,1002.60
2018-04-13T04:29:42.878Z,1002.63
2018-04-13T04:30:42.853Z,1002.59
2018-04-13T04:31:42.824Z,1002.63
2018-04-13T04:32:42.800Z,1002.64
2018-04-13T04:33:42.772Z,1002.63
2018-04-13T04:34:42.749Z,1002.69
2018-04-13T04:35:42.718Z,1002.67
2018-04-13T04:36:42.690Z,1002.72
2018-04-13T04:37:42.663Z,1002.79
2018-04-13T04:38:42.637Z,1002.80
2018-04-13T04:39:42.611Z,1002.85
2018-04-13T04:40:42.583Z,1002.83
2018-04-13T04:41:42.557Z,1002.87
2018-04-13T04:42:42.531Z,1002.89
2018-04-13T04:43:42.509Z,1002.85
2018-04-13T04:44:42.478Z,1002.84
2018-04-13T04:45:42.450Z,1002.83
2018-04-13T04:46:42.425Z,1002.88
2018-04-13T04:47:42.398Z,1002.84
2018-04-13T04:48:42.370Z,1002.91
2018-04-13T04:49:42.344Z,1002.87
2018-04-13T04:50:42.318Z,1002.87
2018-04-13T04:51:42.291Z,1002.90
2018-04-13T04:52:42.264Z,1002.91
2018-04-13T04:53:42.242Z,1002.86
2018-04-13T04:54:42.212Z,1002.84
2018-04-13T04:55:42.190Z,1002.88
2018-04-13T04:56:42.159Z,1002.91
2018-04-13T04:57:42.133Z,1002.87
2018-04-13T04:58:42.108Z,1002.85
2018-04-13T04:59:42.097Z,1002.84
2018-04-13T05:00:42.057Z,1002.88
2018-04-13T05:01:42.026Z,1002.87
2018-04-13T05:02:42.000Z,1002.88
2018-04-13T05:03:41.974Z,1002.90
2018-04-13T05:04:41.946Z,1002.89
2018-04-13T05:05:41.920Z,1002.90
2018-04-13T05:06:41.894Z,1002.88
2018-04-13T05:07:41.867Z,1002.95
2018-04-13T05:08:41.840Z,1003.01
2018-04-13T05:09:41.814Z,1003.05
2018-04-13T05:10:41.787Z,1003.07
2018-04-13T05:11:41.761Z,1003.09
2018-04-13T05:12:41.733Z,1003.13
2018-04-13T05:13:41.708Z,1003.08
2018-04-13T05:14:41.682Z,1003.08
2018-04-13T05:15:41.655Z,1003.14
2018-04-13T05:16:41.640Z,1003.12
2018-04-13T05:17:41.607Z,1003.09
2018-04-13T05:18:41.582Z,1003.05
2018-04-13T05:19:41.549Z,1003.09
2018-04-13T05:20:41.521Z,1003.09
2018-04-13T05:21:41.496Z,1003.04
2018-04-13T05:22:41.472Z,1003.01
2018-04-13T05:23:41.444Z,1003.06
2018-04-13T05:24:41.416Z,1003.13
2018-04-13T05:25:41.390Z,1003.10
2018-04-13T05:26:41.364Z,1003.10
2018-04-13T05:27:41.338Z,1003.08
2018-04-13T05:28:41.311Z,1003.15
2018-04-13T05:29:41.285Z,1003.15
2018-04-13T05:30:41.259Z,1003.16
2018-04-13T05:31:41.233Z,1003.20
2018-04-13T05:32:41.205Z,1003.10
2018-04-13T05:33:41.180Z,1003.10
2018-04-13T05:34:41.154Z,1003.15
2018-04-13T05:35:41.127Z,1003.19
2018-04-13T05:36:41.103Z,1003.20
2018-04-13T05:37:41.074Z,1003.17
2018-04-13T05:38:41.053Z,1003.22
2018-04-13T05:39:41.022Z,1003.19
2018-04-13T05:40:40.995Z,1003.18
2018-04-13T05:41:40.969Z,1003.16
2018-04-13T05:42:40.944Z,1003.19
2018-04-13T05:43:40.917Z,1003.27
2018-04-13T05:44:40.890Z,1003.21
2018-04-13T05:45:40.865Z,1003.20
2018-04-13T05:46:40.839Z,1003.16
2018-04-13T05:47:40.813Z,1003.11
2018-04-13T05:48:40.786Z,1003.14
2018-04-13T05:49:40.764Z,1003.11
2018-04-13T05:50:40.740Z,1003.20
2018-04-13T05:51:40.709Z,1003.21
2018-04-13T05:52:40.682Z,1003.23
2018-04-13T05:53:40.657Z,1003.25
2018-04-13T05:54:40.634Z,1003.26
2018-04-13T05:55:40.612Z,1003.26
2018-04-13T05:56:40.581Z,1003.34
2018-04-13T05:57:40.558Z,1003.34
2018-04-13T05:58:40.536Z,1003.32
2018-04-13T05:59:40.503Z,1003.35
2018-04-13T06:00:40.477Z,1003.39
2018-04-13T06:01:40.456Z,1003.43
2018-04-13T06:02:40.427Z,1003.41
2018-04-13T06:03:40.402Z,1003.50
2018-04-13T06:04:40.375Z,1003.53
2018-04-13T06:05:40.350Z,1003.57
2018-04-13T06:06:40.325Z,1003.64
2018-04-13T06:07:40.300Z,1003.68
2018-04-13T06:08:40.279Z,1003.69
2018-04-13T06:09:40.250Z,1003.68
2018-04-13T06:10:40.226Z,1003.57
2018-04-13T06:11:40.200Z,1003.47
2018-04-13T06:12:40.177Z,1003.47
2018-04-13T06:13:40.152Z,1003.48
2018-04-13T06:14:40.129Z,1003.45
2018-04-13T06:15:40.102Z,1003.59
2018-04-13T06:16:40.076Z,1003.53
2018-04-13T06:17:40.052Z,1003.58
2018-04-13T06:18:40.028Z,1003.61
2018-04-13T06:19:40.004Z,1003.65
2018-04-13T06:20:39.979Z,1003.67
2018-04-13T06:21:39.954Z,1003.70
2018-04-13T06:22:39.934Z,1003.74
2018-04-13T06:23:39.911Z,1003.81
2018-04-13T06:24:39.881Z,1003.76
2018-04-13T06:25:39.859Z,1003.76
2018-04-13T06:26:39.834Z,1003.80
2018-04-13T06:27:39.809Z,1003.82
2018-04-13T06:28:39.784Z,1003.78
2018-04-13T06:29:39.837Z,1003.81
2018-04-13T06:30:39.737Z,1003.85
2018-04-13T06:31:39.713Z,1003.83
2018-04-13T06:32:39.692Z,1003.81
2018-04-13T06:33:39.666Z,1003.84
2018-04-13T06:34:39.646Z,1003.81
2018-04-13T06:35:39.620Z,1003.85
2018-04-13T06:36:39.597Z,1003.83
2018-04-13T06:37:39.578Z,1003.82
2018-04-13T06:38:39.547Z,1003.79
2018-04-13T06:39:39.524Z,1003.78
2018-04-13T06:40:39.501Z,1003.80
2018-04-13T06:41:39.476Z,1003.88
2018-04-13T06:42:39.454Z,1003.89
2018-04-13T06:43:39.437Z,1003.96
2018-04-13T06:44:39.405Z,1003.95
2018-04-13T06:45:39.383Z,1003.98
2018-04-13T06:46:39.359Z,1003.92
2018-04-13T06:47:39.342Z,1004.01
2018-04-13T06:48:39.350Z,1004.02
2018-04-13T06:49:39.288Z,1004.01
2018-04-13T06:50:39.268Z,1004.02
2018-04-13T06:51:39.243Z,1003.99
2018-04-13T06:52:39.219Z,1004.11
2018-04-13T06:53:39.199Z,1004.09
2018-04-13T06:54:39.174Z,1004.07
2018-04-13T06:55:39.148Z,1004.13
2018-04-13T06:56:39.127Z,1004.24
2018-04-13T06:57:39.102Z,1004.24
2018-04-13T06:58:39.084Z,1004.31
2018-04-13T06:59:39.057Z,1004.36
2018-04-13T07:00:39.032Z,1004.38
2018-04-13T07:01:39.009Z,1004.44
2018-04-13T07:02:38.993Z,1004.47
2018-04-13T07:03:38.963Z,1004.55
2018-04-13T07:04:38.940Z,1004.60
2018-04-13T07:05:38.918Z,1004.62
2018-04-13T07:06:38.895Z,1004.65
2018-04-13T07:07:38.876Z,1004.78
2018-04-13T07:08:38.853Z,1004.88
2018-04-13T07:09:38.826Z,1004.84
2018-04-13T07:10:38.805Z,1004.82
2018-04-13T07:11:38.783Z,1004.88
2018-04-13T07:12:38.759Z,1005.02
2018-04-13T07:13:38.774Z,1005.04
2018-04-13T07:14:38.717Z,1005.03
2018-04-13T07:15:38.696Z,1004.99
2018-04-13T07:16:38.673Z,1005.05
2018-04-13T07:17:38.652Z,1005.04
2018-04-13T07:18:38.779Z,1005.08
2018-04-13T07:19:38.624Z,1005.06
2018-04-13T07:20:38.591Z,1005.04
2018-04-13T07:21:38.567Z,1004.91
2018-04-13T07:22:38.555Z,1004.86
2018-04-13T07:23:38.524Z,1004.79
2018-04-13T07:24:38.500Z,1004.78
2018-04-13T07:25:38.482Z,1004.82
2018-04-13T07:26:38.509Z,1004.84
2018-04-13T07:27:38.438Z,1004.75
2018-04-13T07:28:38.417Z,1004.99
2018-04-13T07:29:38.395Z,1004.98
2018-04-13T07:30:38.375Z,1004.88
2018-04-13T07:31:38.354Z,1004.86
2018-04-13T07:32:38.336Z,1004.78
2018-04-13T07:33:38.843Z,1004.65
2018-04-13T07:34:38.298Z,1004.66
2018-04-13T07:35:38.273Z,1004.63
2018-04-13T07:36:38.250Z,1004.68
2018-04-13T07:37:38.232Z,1004.66
2018-04-13T07:38:38.212Z,1004.80
2018-04-13T07:39:38.195Z,1004.80
2018-04-13T07:40:38.177Z,1004.83
2018-04-13T07:41:38.150Z,1004.81
2018-04-13T07:42:38.130Z,1004.66
2018-04-13T07:43:38.115Z,1004.63
2018-04-13T07:44:38.101Z,1004.64
2018-04-13T07:45:38.069Z,1004.55
2018-04-13T07:46:38.058Z,1004.43
2018-04-13T07:47:38.030Z,1004.40
2018-04-13T07:48:38.010Z,1004.38
2018-04-13T07:49:37.991Z,1004.38
2018-04-13T07:50:37.970Z,1004.25
2018-04-13T07:51:38.400Z,1004.18
2018-04-13T07:52:37.935Z,1004.13
2018-04-13T07:53:37.910Z,1004.09
2018-04-13T07:54:37.891Z,1004.08
2018-04-13T07:55:37.871Z,1004.07
2018-04-13T07:56:37.855Z,1004.07
2018-04-13T07:57:37.831Z,1004.06
2018-04-13T07:58:37.810Z,1004.15
2018-04-13T07:59:37.794Z,1004.13
2018-04-13T08:00:37.769Z,1004.15
2018-04-13T08:01:37.749Z,1004.11
2018-04-13T08:02:37.729Z,1004.08
2018-04-13T08:03:37.716Z,1004.05
2018-04-13T08:04:37.687Z,1004.07
2018-04-13T08:05:37.666Z,1004.00
2018-04-13T08:06:37.646Z,1004.03
2018-04-13T08:07:37.628Z,1004.01
2018-04-13T08:08:37.605Z,1003.98
2018-04-13T08:09:37.583Z,1003.97
2018-04-13T08:10:37.564Z,1003.99
2018-04-13T08:11:37.542Z,1004.00
2018-04-13T08:12:37.827Z,1004.02
2018-04-13T08:13:37.503Z,1004.02
2018-04-13T08:14:37.479Z,1004.02
2018-04-13T08:15:37.462Z,1004.11
2018-04-13T08:16:37.436Z,1004.15
2018-04-13T08:17:37.417Z,1004.12
2018-04-13T08:18:37.395Z,1004.09
2018-04-13T08:19:37.374Z,1004.37
2018-04-13T08:20:37.355Z,1004.50
2018-04-13T08:21:37.332Z,1004.36
2018-04-13T08:22:37.315Z,1004.35
2018-04-13T08:23:37.290Z,1004.30
2018-04-13T08:24:37.272Z,1004.35
2018-04-13T08:25:37.251Z,1004.23
2018-04-13T08:26:37.232Z,1004.21
2018-04-13T08:27:37.211Z,1004.21
2018-04-13T08:28:37.191Z,1004.24
2018-04-13T08:29:37.180Z,1004.31
2018-04-13T08:30:37.147Z,1004.31
2018-04-13T08:31:37.138Z,1004.29
2018-04-13T08:32:37.112Z,1004.28
2018-04-13T08:33:37.088Z,1004.28
2018-04-13T08:34:37.069Z,1004.35
2018-04-13T08:35:37.064Z,1004.44
2018-04-13T08:36:37.031Z,1004.48
2018-04-13T08:37:37.102Z,1004.43
2018-04-13T08:38:36.991Z,1004.37
2018-04-13T08:39:36.997Z,1004.49
2018-04-13T08:40:36.951Z,1004.38
2018-04-13T08:41:36.935Z,1004.36
2018-04-13T08:42:36.949Z,1004.45
2018-04-13T08:43:36.952Z,1004.48
2018-04-13T08:44:36.876Z,1004.45
2018-04-13T08:45:36.856Z,1004.51
2018-04-13T08:46:36.838Z,1004.58
2018-04-13T08:47:36.819Z,1004.57
2018-04-13T08:48:36.878Z,1004.60
2018-04-13T08:49:36.821Z,1004.58
2018-04-13T08:50:36.763Z,1004.68
2018-04-13T08:51:36.747Z,1004.62
2018-04-13T08:52:36.741Z,1004.52
2018-04-13T08:53:36.709Z,1004.51
2018-04-13T08:54:36.695Z,1004.53
2018-04-13T08:55:36.673Z,1004.67
2018-04-13T08:56:36.658Z,1004.70
2018-04-13T08:57:36.668Z,1004.78
2018-04-13T08:58:36.619Z,1004.86
2018-04-13T08:59:36.606Z,1004.89
2018-04-13T09:00:36.585Z,1004.75
2018-04-13T09:01:36.567Z,1004.67
2018-04-13T09:02:36.549Z,1004.61
2018-04-13T09:03:36.532Z,1004.59
2018-04-13T09:04:36.515Z,1004.57
2018-04-13T09:05:36.497Z,1004.52
2018-04-13T09:06:36.513Z,1004.67
2018-04-13T09:07:36.468Z,1004.85
2018-04-13T09:08:36.449Z,1004.77
2018-04-13T09:09:36.440Z,1004.58
2018-04-13T09:10:36.417Z,1004.54
2018-04-13T09:11:36.398Z,1004.57
2018-04-13T09:12:36.380Z,1004.58
2018-04-13T09:13:36.362Z,1004.56
2018-04-13T09:14:36.348Z,1004.61
2018-04-13T09:15:36.333Z,1004.54
2018-04-13T09:16:36.312Z,1004.53
2018-04-13T09:17:36.295Z,1004.47
2018-04-13T09:18:36.279Z,1004.45
2018-04-13T09:19:36.262Z,1004.46
2018-04-13T09:20:36.246Z,1004.43
2018-04-13T09:21:36.229Z,1004.45
2018-04-13T09:22:36.213Z,1004.42
2018-04-13T09:23:36.198Z,1004.45
2018-04-13T09:24:36.179Z,1004.46
2018-04-13T09:25:36.163Z,1004.44
2018-04-13T09:26:36.145Z,1004.46
2018-04-13T09:27:36.128Z,1004.44
2018-04-13T09:28:36.111Z,1004.48
2018-04-13T09:29:36.101Z,1004.47
2018-04-13T09:30:36.081Z,1004.41
2018-04-13T09:31:36.067Z,1004.40
2018-04-13T09:32:36.043Z,1004.39
2018-04-13T09:33:36.031Z,1004.45
2018-04-13T09:34:36.011Z,1004.45
2018-04-13T09:35:36.044Z,1004.50
2018-04-13T09:36:35.975Z,1004.47
2018-04-13T09:37:35.958Z,1004.47
2018-04-13T09:38:35.941Z,1004.46
2018-04-13T09:39:35.927Z,1004.48
2018-04-13T09:40:35.910Z,1004.46
2018-04-13T09:41:35.891Z,1004.49
2018-04-13T09:42:35.882Z,1004.48
2018-04-13T09:43:35.859Z,1004.44
2018-04-13T09:44:35.838Z,1004.47
2018-04-13T09:45:35.821Z,1004.46
2018-04-13T09:46:35.802Z,1004.42
2018-04-13T09:47:35.789Z,1004.42
2018-04-13T09:48:35.767Z,1004.37
2018-04-13T09:49:35.750Z,1004.47
2018-04-13T09:50:35.732Z,1004.45
2018-04-13T09:51:35.733Z,1004.42
2018-04-13T09:52:35.702Z,1004.38
2018-04-13T09:53:35.682Z,1004.41
2018-04-13T09:54:35.665Z,1004.44
2018-04-13T09:55:35.656Z,1004.48
2018-04-13T09:56:35.680Z,1004.45
2018-04-13T09:57:35.605Z,1004.46
2018-04-13T09:58:35.587Z,1004.50
2018-04-13T09:59:35.569Z,1004.50
2018-04-13T10:00:35.550Z,1004.51
2018-04-13T10:01:35.533Z,1004.48
2018-04-13T10:02:35.513Z,1004.47
2018-04-13T10:03:35.496Z,1004.48
2018-04-13T10:04:35.475Z,1004.48
2018-04-13T10:05:35.507Z,1004.39
2018-04-13T10:06:35.442Z,1004.41
2018-04-13T10:07:35.419Z,1004.43
2018-04-13T10:08:35.402Z,1004.45
2018-04-13T10:09:35.381Z,1004.46
2018-04-13T10:10:35.361Z,1004.46
2018-04-13T10:11:35.348Z,1004.49
2018-04-13T10:12:35.324Z,1004.53
2018-04-13T10:13:35.324Z,1004.51
2018-04-13T10:14:35.286Z,1004.54
2018-04-13T10:15:35.267Z,1004.54
2018-04-13T10:16:35.247Z,1004.55
2018-04-13T10:17:35.233Z,1004.56
2018-04-13T10:18:35.208Z,1004.56
2018-04-13T10:19:35.190Z,1004.59
2018-04-13T10:20:35.169Z,1004.63
2018-04-13T10:21:35.149Z,1004.57
2018-04-13T10:22:35.152Z,1004.55
2018-04-13T10:23:35.111Z,1004.57
2018-04-13T10:24:35.090Z,1004.53
2018-04-13T10:25:35.074Z,1004.51
2018-04-13T10:26:35.053Z,1004.49
2018-04-13T10:27:35.039Z,1004.45
2018-04-13T10:28:35.012Z,1004.44
2018-04-13T10:29:34.992Z,1004.40
2018-04-13T10:30:34.978Z,1004.42
2018-04-13T10:31:34.953Z,1004.44
2018-04-13T10:32:34.933Z,1004.48
2018-04-13T10:33:34.915Z,1004.47
2018-04-13T10:34:34.893Z,1004.47
2018-04-13T10:35:34.873Z,1004.52
2018-04-13T10:36:34.862Z,1004.51
2018-04-13T10:37:34.832Z,1004.50
2018-04-13T10:38:34.813Z,1004.55
2018-04-13T10:39:34.796Z,1004.51
2018-04-13T10:40:34.771Z,1004.54
2018-04-13T10:41:34.757Z,1004.52
2018-04-13T10:42:34.732Z,1004.49
2018-04-13T10:43:35.462Z,1004.53
2018-04-13T10:44:34.693Z,1004.53
2018-04-13T10:45:34.670Z,1004.53
2018-04-13T10:46:34.651Z,1004.53
2018-04-13T10:47:34.630Z,1004.52
2018-04-13T10:48:34.608Z,1004.53
2018-04-13T10:49:34.594Z,1004.54
2018-04-13T10:50:34.568Z,1004.49
2018-04-13T10:51:34.546Z,1004.53
2018-04-13T10:52:34.527Z,1004.50
2018-04-13T10:53:34.505Z,1004.51
2018-04-13T10:54:34.484Z,1004.49
2018-04-13T10:55:34.462Z,1004.49
2018-04-13T10:56:34.444Z,1004.51
2018-04-13T10:57:34.433Z,1004.48
2018-04-13T10:58:34.398Z,1004.47
2018-04-13T10:59:34.382Z,1004.41
2018-04-13T11:00:34.372Z,1004.53
2018-04-13T11:01:34.334Z,1004.47
2018-04-13T11:02:34.312Z,1004.49
2018-04-13T11:03:34.296Z,1004.50
2018-04-13T11:04:34.269Z,1004.48
2018-04-13T11:05:34.246Z,1004.44
2018-04-13T11:06:34.225Z,1004.42
2018-04-13T11:07:34.208Z,1004.47
2018-04-13T11:08:34.181Z,1004.45
2018-04-13T11:09:34.157Z,1004.41
2018-04-13T11:10:34.136Z,1004.40
2018-04-13T11:11:34.114Z,1004.37
2018-04-13T11:12:34.092Z,1004.34
2018-04-13T11:13:34.068Z,1004.27
2018-04-13T11:14:34.052Z,1004.34
2018-04-13T11:15:34.023Z,1004.33
2018-04-13T11:16:34.000Z,1004.25
2018-04-13T11:17:33.976Z,1004.23
2018-04-13T11:18:33.955Z,1004.20
2018-04-13T11:19:33.931Z,1004.13
2018-04-13T11:20:33.907Z,1004.12
2018-04-13T11:21:33.884Z,1004.07
2018-04-13T11:22:33.862Z,1004.03
2018-04-13T11:23:33.843Z,1004.01
2018-04-13T11:24:33.815Z,1003.93
2018-04-13T11:25:33.796Z,1003.94
2018-04-13T11:26:33.769Z,1003.96
2018-04-13T11:27:33.765Z,1003.98
2018-04-13T11:28:33.726Z,1004.02
2018-04-13T11:29:33.700Z,1004.01
2018-04-13T11:30:33.677Z,1004.09
2018-04-13T11:31:33.668Z,1004.13
2018-04-13T11:32:33.644Z,1004.16
2018-04-13T11:33:33.669Z,1004.16
2018-04-13T11:34:33.587Z,1004.15
2018-04-13T11:35:33.567Z,1004.15
2018-04-13T11:36:33.541Z,1004.10
2018-04-13T11:37:33.521Z,1004.07
2018-04-13T11:38:33.494Z,1004.07
2018-04-13T11:39:33.472Z,1004.03
2018-04-13T11:40:33.450Z,1004.04
2018-04-13T11:41:33.475Z,1004.07
2018-04-13T11:42:33.405Z,1004.10
2018-04-13T11:43:33.388Z,1004.15
2018-04-13T11:44:33.359Z,1004.19
2018-04-13T11:45:33.342Z,1004.17
2018-04-13T11:46:33.314Z,1004.16
2018-04-13T11:47:33.296Z,1004.18
2018-04-13T11:48:33.270Z,1004.18
2018-04-13T11:49:33.250Z,1004.11
2018-04-13T11:50:33.225Z,1004.08
2018-04-13T11:51:33.204Z,1004.05
2018-04-13T11:52:33.185Z,1004.05
2018-04-13T11:53:33.163Z,1004.03
2018-04-13T11:54:33.137Z,1004.10
2018-04-13T11:55:33.118Z,1004.14
2018-04-13T11:56:33.093Z,1004.19
2018-04-13T11:57:33.070Z,1004.28
2018-04-13T11:58:33.052Z,1004.26
2018-04-13T11:59:33.044Z,1004.25
2018-04-13T12:00:33.005Z,1004.23
2018-04-13T12:01:32.982Z,1004.25
2018-04-13T12:02:32.971Z,1004.22
2018-04-13T12:03:32.969Z,1004.20
2018-04-13T12:04:32.917Z,1004.27
2018-04-13T12:05:32.899Z,1004.24